sensor_id;sensor_type;location;lat;lon;timestamp;P1;durP1;ratioP1;P2;durP2;ratioP2
64885;SDS011;51514;52.206;5.114;2023-07-13T00:01:15;15.68;;;5.40;;
64885;SDS011;51514;52.206;5.114;2023-07-13T00:03:41;14.45;;;5.05;;
64885;SDS011;51514;52.206;5.114;2023-07-13T00:06:07;17.63;;;4.80;;
64885;SDS011;51514;52.206;5.114;2023-07-13T00:08:33;14.82;;;4.78;;
64885;SDS011;51514;52.206;5.114;2023-07-13T00:11:00;17.83;;;5.82;;
64885;SDS011;51514;52.206;5.114;2023-07-13T00:13:27;16.23;;;5.03;;
64885;SDS011;51514;52.206;5.114;2023-07-13T00:15:52;21.08;;;5.80;;
64885;SDS011;51514;52.206;5.114;2023-07-13T00:18:19;17.23;;;5.28;;
64885;SDS011;51514;52.206;5.114;2023-07-13T00:20:45;17.88;;;5.07;;
64885;SDS011;51514;52.206;5.114;2023-07-13T00:23:10;20.40;;;4.82;;
64885;SDS011;51514;52.206;5.114;2023-07-13T00:25:36;19.10;;;4.95;;
64885;SDS011;51514;52.206;5.114;2023-07-13T00:28:02;21.40;;;4.78;;
64885;SDS011;51514;52.206;5.114;2023-07-13T00:30:28;17.08;;;4.40;;
64885;SDS011;51514;52.206;5.114;2023-07-13T00:32:53;18.95;;;4.75;;
64885;SDS011;51514;52.206;5.114;2023-07-13T00:35:18;17.77;;;4.43;;
64885;SDS011;51514;52.206;5.114;2023-07-13T00:37:44;16.27;;;4.05;;
64885;SDS011;51514;52.206;5.114;2023-07-13T00:40:10;15.38;;;4.90;;
64885;SDS011;51514;52.206;5.114;2023-07-13T00:42:38;19.98;;;5.03;;
64885;SDS011;51514;52.206;5.114;2023-07-13T00:47:49;16.73;;;4.43;;
64885;SDS011;51514;52.206;5.114;2023-07-13T00:50:15;15.63;;;4.78;;
64885;SDS011;51514;52.206;5.114;2023-07-13T00:52:44;17.63;;;4.80;;
64885;SDS011;51514;52.206;5.114;2023-07-13T00:55:13;13.30;;;4.53;;
64885;SDS011;51514;52.206;5.114;2023-07-13T00:57:40;15.73;;;4.80;;
64885;SDS011;51514;52.206;5.114;2023-07-13T01:00:07;18.98;;;4.97;;
64885;SDS011;51514;52.206;5.114;2023-07-13T01:02:34;15.35;;;3.78;;
64885;SDS011;51514;52.206;5.114;2023-07-13T01:05:07;17.13;;;4.60;;
64885;SDS011;51514;52.206;5.114;2023-07-13T01:07:34;20.48;;;5.72;;
64885;SDS011;51514;52.206;5.114;2023-07-13T01:10:02;20.58;;;5.03;;
64885;SDS011;51514;52.206;5.114;2023-07-13T01:12:28;15.35;;;4.10;;
64885;SDS011;51514;52.206;5.114;2023-07-13T01:14:58;17.40;;;4.13;;
64885;SDS011;51514;52.206;5.114;2023-07-13T01:17:25;16.20;;;5.18;;
64885;SDS011;51514;52.206;5.114;2023-07-13T01:19:52;14.10;;;3.97;;
64885;SDS011;51514;52.206;5.114;2023-07-13T01:22:18;13.77;;;4.30;;
64885;SDS011;51514;52.206;5.114;2023-07-13T01:24:47;11.77;;;3.83;;
64885;SDS011;51514;52.206;5.114;2023-07-13T01:27:14;13.82;;;3.75;;
64885;SDS011;51514;52.206;5.114;2023-07-13T01:29:43;13.57;;;4.30;;
64885;SDS011;51514;52.206;5.114;2023-07-13T01:32:12;20.88;;;4.35;;
64885;SDS011;51514;52.206;5.114;2023-07-13T01:34:40;20.80;;;4.03;;
64885;SDS011;51514;52.206;5.114;2023-07-13T01:37:07;12.18;;;3.72;;
64885;SDS011;51514;52.206;5.114;2023-07-13T01:39:33;12.10;;;4.18;;
64885;SDS011;51514;52.206;5.114;2023-07-13T01:41:59;13.82;;;4.40;;
64885;SDS011;51514;52.206;5.114;2023-07-13T01:44:25;16.10;;;4.25;;
64885;SDS011;51514;52.206;5.114;2023-07-13T01:46:51;14.10;;;4.15;;
64885;SDS011;51514;52.206;5.114;2023-07-13T01:49:16;15.20;;;4.45;;
64885;SDS011;51514;52.206;5.114;2023-07-13T01:51:41;15.73;;;5.22;;
64885;SDS011;51514;52.206;5.114;2023-07-13T01:54:07;19.17;;;5.60;;
64885;SDS011;51514;52.206;5.114;2023-07-13T01:56:32;17.52;;;5.00;;
64885;SDS011;51514;52.206;5.114;2023-07-13T01:58:58;13.07;;;4.40;;
64885;SDS011;51514;52.206;5.114;2023-07-13T02:01:23;23.05;;;5.57;;
64885;SDS011;51514;52.206;5.114;2023-07-13T02:03:48;19.20;;;4.80;;
64885;SDS011;51514;52.206;5.114;2023-07-13T02:06:14;22.70;;;5.07;;
64885;SDS011;51514;52.206;5.114;2023-07-13T02:08:40;20.35;;;5.10;;
64885;SDS011;51514;52.206;5.114;2023-07-13T02:11:06;17.75;;;4.82;;
64885;SDS011;51514;52.206;5.114;2023-07-13T02:13:32;20.15;;;4.93;;
64885;SDS011;51514;52.206;5.114;2023-07-13T02:15:57;17.38;;;4.93;;
64885;SDS011;51514;52.206;5.114;2023-07-13T02:18:22;17.20;;;4.72;;
64885;SDS011;51514;52.206;5.114;2023-07-13T02:20:48;19.48;;;5.18;;
64885;SDS011;51514;52.206;5.114;2023-07-13T02:23:13;15.90;;;4.80;;
64885;SDS011;51514;52.206;5.114;2023-07-13T02:25:39;12.93;;;4.70;;
64885;SDS011;51514;52.206;5.114;2023-07-13T02:28:04;17.40;;;5.43;;
64885;SDS011;51514;52.206;5.114;2023-07-13T02:30:30;16.83;;;5.72;;
64885;SDS011;51514;52.206;5.114;2023-07-13T02:32:56;13.73;;;4.72;;
64885;SDS011;51514;52.206;5.114;2023-07-13T02:35:22;20.30;;;6.03;;
64885;SDS011;51514;52.206;5.114;2023-07-13T02:37:47;21.20;;;4.60;;
64885;SDS011;51514;52.206;5.114;2023-07-13T02:40:13;18.52;;;5.78;;
64885;SDS011;51514;52.206;5.114;2023-07-13T02:42:38;20.42;;;5.57;;
64885;SDS011;51514;52.206;5.114;2023-07-13T02:45:04;16.90;;;5.18;;
64885;SDS011;51514;52.206;5.114;2023-07-13T02:47:32;18.83;;;4.95;;
64885;SDS011;51514;52.206;5.114;2023-07-13T02:49:57;15.70;;;5.05;;
64885;SDS011;51514;52.206;5.114;2023-07-13T02:52:23;21.50;;;5.00;;
64885;SDS011;51514;52.206;5.114;2023-07-13T02:54:48;12.70;;;4.10;;
64885;SDS011;51514;52.206;5.114;2023-07-13T02:57:14;15.73;;;4.38;;
64885;SDS011;51514;52.206;5.114;2023-07-13T02:59:39;17.02;;;5.05;;
64885;SDS011;51514;52.206;5.114;2023-07-13T03:02:04;15.60;;;4.70;;
64885;SDS011;51514;52.206;5.114;2023-07-13T03:04:30;15.27;;;3.95;;
64885;SDS011;51514;52.206;5.114;2023-07-13T03:06:56;14.30;;;4.68;;
64885;SDS011;51514;52.206;5.114;2023-07-13T03:09:23;14.73;;;4.60;;
64885;SDS011;51514;52.206;5.114;2023-07-13T03:11:49;7.15;;;3.22;;
64885;SDS011;51514;52.206;5.114;2023-07-13T03:14:17;14.93;;;4.32;;
64885;SDS011;51514;52.206;5.114;2023-07-13T03:16:43;11.98;;;3.65;;
64885;SDS011;51514;52.206;5.114;2023-07-13T03:19:08;13.35;;;4.50;;
64885;SDS011;51514;52.206;5.114;2023-07-13T03:21:34;9.52;;;3.35;;
64885;SDS011;51514;52.206;5.114;2023-07-13T03:23:59;15.50;;;3.38;;
64885;SDS011;51514;52.206;5.114;2023-07-13T03:26:25;14.18;;;3.92;;
64885;SDS011;51514;52.206;5.114;2023-07-13T03:28:50;11.00;;;3.20;;
64885;SDS011;51514;52.206;5.114;2023-07-13T03:31:17;14.10;;;3.55;;
64885;SDS011;51514;52.206;5.114;2023-07-13T03:33:44;8.70;;;3.08;;
64885;SDS011;51514;52.206;5.114;2023-07-13T03:36:18;14.68;;;4.70;;
64885;SDS011;51514;52.206;5.114;2023-07-13T03:38:50;16.38;;;3.90;;
64885;SDS011;51514;52.206;5.114;2023-07-13T03:41:18;13.10;;;4.03;;
64885;SDS011;51514;52.206;5.114;2023-07-13T03:43:44;11.40;;;3.60;;
64885;SDS011;51514;52.206;5.114;2023-07-13T03:46:09;12.40;;;4.03;;
64885;SDS011;51514;52.206;5.114;2023-07-13T03:48:35;16.90;;;4.22;;
64885;SDS011;51514;52.206;5.114;2023-07-13T03:51:01;16.10;;;4.43;;
64885;SDS011;51514;52.206;5.114;2023-07-13T03:53:26;17.15;;;4.95;;
64885;SDS011;51514;52.206;5.114;2023-07-13T03:55:52;15.90;;;4.47;;
64885;SDS011;51514;52.206;5.114;2023-07-13T03:58:25;15.23;;;4.75;;
64885;SDS011;51514;52.206;5.114;2023-07-13T04:00:53;15.80;;;4.78;;
64885;SDS011;51514;52.206;5.114;2023-07-13T04:03:19;12.35;;;4.85;;
64885;SDS011;51514;52.206;5.114;2023-07-13T04:05:45;15.07;;;5.07;;
64885;SDS011;51514;52.206;5.114;2023-07-13T04:08:11;14.60;;;4.53;;
64885;SDS011;51514;52.206;5.114;2023-07-13T04:10:36;12.98;;;4.90;;
64885;SDS011;51514;52.206;5.114;2023-07-13T04:13:03;16.48;;;4.22;;
64885;SDS011;51514;52.206;5.114;2023-07-13T04:15:30;11.05;;;4.68;;
64885;SDS011;51514;52.206;5.114;2023-07-13T04:17:56;16.75;;;5.60;;
64885;SDS011;51514;52.206;5.114;2023-07-13T04:20:22;17.13;;;4.63;;
64885;SDS011;51514;52.206;5.114;2023-07-13T04:22:49;12.18;;;4.30;;
64885;SDS011;51514;52.206;5.114;2023-07-13T04:25:15;14.95;;;4.60;;
64885;SDS011;51514;52.206;5.114;2023-07-13T04:27:40;14.27;;;4.00;;
64885;SDS011;51514;52.206;5.114;2023-07-13T04:30:06;19.45;;;4.70;;
64885;SDS011;51514;52.206;5.114;2023-07-13T04:32:32;21.63;;;4.90;;
64885;SDS011;51514;52.206;5.114;2023-07-13T04:34:57;21.95;;;5.10;;
64885;SDS011;51514;52.206;5.114;2023-07-13T04:37:24;21.55;;;5.43;;
64885;SDS011;51514;52.206;5.114;2023-07-13T04:39:54;20.40;;;5.85;;
64885;SDS011;51514;52.206;5.114;2023-07-13T04:42:19;19.90;;;6.00;;
64885;SDS011;51514;52.206;5.114;2023-07-13T04:44:48;18.83;;;5.18;;
64885;SDS011;51514;52.206;5.114;2023-07-13T04:47:17;18.85;;;6.05;;
64885;SDS011;51514;52.206;5.114;2023-07-13T04:49:44;21.00;;;6.65;;
64885;SDS011;51514;52.206;5.114;2023-07-13T04:52:09;24.48;;;6.80;;
64885;SDS011;51514;52.206;5.114;2023-07-13T04:54:35;15.90;;;6.43;;
64885;SDS011;51514;52.206;5.114;2023-07-13T04:57:02;18.38;;;6.30;;
64885;SDS011;51514;52.206;5.114;2023-07-13T04:59:28;20.77;;;6.75;;
64885;SDS011;51514;52.206;5.114;2023-07-13T05:01:53;18.48;;;6.60;;
64885;SDS011;51514;52.206;5.114;2023-07-13T05:04:19;22.33;;;6.82;;
64885;SDS011;51514;52.206;5.114;2023-07-13T05:06:44;20.85;;;6.80;;
64885;SDS011;51514;52.206;5.114;2023-07-13T05:09:10;22.65;;;7.20;;
64885;SDS011;51514;52.206;5.114;2023-07-13T05:11:35;20.45;;;7.22;;
64885;SDS011;51514;52.206;5.114;2023-07-13T05:14:01;19.30;;;6.38;;
64885;SDS011;51514;52.206;5.114;2023-07-13T05:16:26;26.02;;;6.53;;
64885;SDS011;51514;52.206;5.114;2023-07-13T05:18:53;18.38;;;6.82;;
64885;SDS011;51514;52.206;5.114;2023-07-13T05:21:18;30.10;;;7.68;;
64885;SDS011;51514;52.206;5.114;2023-07-13T05:23:44;23.08;;;7.63;;
64885;SDS011;51514;52.206;5.114;2023-07-13T05:26:09;23.40;;;7.22;;
64885;SDS011;51514;52.206;5.114;2023-07-13T05:28:35;29.50;;;8.15;;
64885;SDS011;51514;52.206;5.114;2023-07-13T05:31:01;22.67;;;7.78;;
64885;SDS011;51514;52.206;5.114;2023-07-13T05:33:27;20.90;;;7.28;;
64885;SDS011;51514;52.206;5.114;2023-07-13T05:35:53;20.67;;;6.63;;
64885;SDS011;51514;52.206;5.114;2023-07-13T05:38:18;21.27;;;6.55;;
64885;SDS011;51514;52.206;5.114;2023-07-13T05:40:44;20.27;;;6.35;;
64885;SDS011;51514;52.206;5.114;2023-07-13T05:43:10;28.15;;;7.28;;
64885;SDS011;51514;52.206;5.114;2023-07-13T05:45:36;22.33;;;7.20;;
64885;SDS011;51514;52.206;5.114;2023-07-13T05:48:02;22.45;;;7.35;;
64885;SDS011;51514;52.206;5.114;2023-07-13T05:50:27;20.23;;;6.85;;
64885;SDS011;51514;52.206;5.114;2023-07-13T05:52:52;24.60;;;6.93;;
64885;SDS011;51514;52.206;5.114;2023-07-13T05:55:18;23.02;;;7.75;;
64885;SDS011;51514;52.206;5.114;2023-07-13T05:57:44;25.55;;;7.57;;
64885;SDS011;51514;52.206;5.114;2023-07-13T06:00:10;23.80;;;7.45;;
64885;SDS011;51514;52.206;5.114;2023-07-13T06:02:36;20.70;;;6.82;;
64885;SDS011;51514;52.206;5.114;2023-07-13T06:05:01;23.20;;;7.65;;
64885;SDS011;51514;52.206;5.114;2023-07-13T06:07:27;24.13;;;6.80;;
64885;SDS011;51514;52.206;5.114;2023-07-13T06:09:52;22.30;;;6.90;;
64885;SDS011;51514;52.206;5.114;2023-07-13T06:12:18;19.77;;;5.90;;
64885;SDS011;51514;52.206;5.114;2023-07-13T06:14:43;23.65;;;7.55;;
64885;SDS011;51514;52.206;5.114;2023-07-13T06:17:09;21.45;;;7.55;;
64885;SDS011;51514;52.206;5.114;2023-07-13T06:19:34;17.88;;;7.50;;
64885;SDS011;51514;52.206;5.114;2023-07-13T06:21:59;22.45;;;6.68;;
64885;SDS011;51514;52.206;5.114;2023-07-13T06:24:25;13.70;;;5.95;;
64885;SDS011;51514;52.206;5.114;2023-07-13T06:26:51;18.17;;;6.13;;
64885;SDS011;51514;52.206;5.114;2023-07-13T06:29:17;22.50;;;7.40;;
64885;SDS011;51514;52.206;5.114;2023-07-13T06:31:42;24.67;;;6.60;;
64885;SDS011;51514;52.206;5.114;2023-07-13T06:34:08;20.63;;;6.70;;
64885;SDS011;51514;52.206;5.114;2023-07-13T06:36:33;19.67;;;6.93;;
64885;SDS011;51514;52.206;5.114;2023-07-13T06:38:59;16.08;;;5.90;;
64885;SDS011;51514;52.206;5.114;2023-07-13T06:41:24;19.20;;;6.15;;
64885;SDS011;51514;52.206;5.114;2023-07-13T06:43:52;14.50;;;6.18;;
64885;SDS011;51514;52.206;5.114;2023-07-13T06:46:20;24.55;;;6.43;;
64885;SDS011;51514;52.206;5.114;2023-07-13T06:48:47;20.70;;;6.23;;
64885;SDS011;51514;52.206;5.114;2023-07-13T06:51:12;16.73;;;6.63;;
64885;SDS011;51514;52.206;5.114;2023-07-13T06:53:38;22.40;;;6.65;;
64885;SDS011;51514;52.206;5.114;2023-07-13T06:56:03;17.85;;;7.38;;
64885;SDS011;51514;52.206;5.114;2023-07-13T06:58:30;32.72;;;10.50;;
64885;SDS011;51514;52.206;5.114;2023-07-13T07:00:55;24.50;;;8.85;;
64885;SDS011;51514;52.206;5.114;2023-07-13T07:03:21;26.60;;;8.68;;
64885;SDS011;51514;52.206;5.114;2023-07-13T07:05:46;21.63;;;8.38;;
64885;SDS011;51514;52.206;5.114;2023-07-13T07:08:12;17.42;;;7.00;;
64885;SDS011;51514;52.206;5.114;2023-07-13T07:10:37;9.70;;;3.67;;
64885;SDS011;51514;52.206;5.114;2023-07-13T07:13:03;9.20;;;3.58;;
64885;SDS011;51514;52.206;5.114;2023-07-13T07:15:29;7.30;;;3.42;;
64885;SDS011;51514;52.206;5.114;2023-07-13T07:17:54;7.15;;;3.72;;
64885;SDS011;51514;52.206;5.114;2023-07-13T07:20:20;11.75;;;3.20;;
64885;SDS011;51514;52.206;5.114;2023-07-13T07:22:46;5.90;;;3.17;;
64885;SDS011;51514;52.206;5.114;2023-07-13T07:25:12;5.97;;;3.08;;
64885;SDS011;51514;52.206;5.114;2023-07-13T07:27:38;7.75;;;3.10;;
64885;SDS011;51514;52.206;5.114;2023-07-13T07:30:03;9.20;;;4.78;;
64885;SDS011;51514;52.206;5.114;2023-07-13T07:32:29;9.32;;;3.92;;
64885;SDS011;51514;52.206;5.114;2023-07-13T07:34:56;10.23;;;3.97;;
64885;SDS011;51514;52.206;5.114;2023-07-13T07:37:22;6.18;;;3.35;;
64885;SDS011;51514;52.206;5.114;2023-07-13T07:39:47;9.52;;;3.70;;
64885;SDS011;51514;52.206;5.114;2023-07-13T07:42:13;9.23;;;3.65;;
64885;SDS011;51514;52.206;5.114;2023-07-13T07:44:39;11.70;;;4.32;;
64885;SDS011;51514;52.206;5.114;2023-07-13T07:47:06;9.35;;;4.00;;
64885;SDS011;51514;52.206;5.114;2023-07-13T07:49:32;11.05;;;4.28;;
64885;SDS011;51514;52.206;5.114;2023-07-13T07:51:57;9.88;;;4.78;;
64885;SDS011;51514;52.206;5.114;2023-07-13T07:54:22;9.32;;;4.82;;
64885;SDS011;51514;52.206;5.114;2023-07-13T07:56:48;14.57;;;4.55;;
64885;SDS011;51514;52.206;5.114;2023-07-13T07:59:13;10.23;;;4.43;;
64885;SDS011;51514;52.206;5.114;2023-07-13T08:01:39;9.77;;;5.05;;
64885;SDS011;51514;52.206;5.114;2023-07-13T08:04:04;10.02;;;4.95;;
64885;SDS011;51514;52.206;5.114;2023-07-13T08:06:31;15.57;;;5.00;;
64885;SDS011;51514;52.206;5.114;2023-07-13T08:08:58;12.55;;;4.30;;
64885;SDS011;51514;52.206;5.114;2023-07-13T08:11:24;10.38;;;3.72;;
64885;SDS011;51514;52.206;5.114;2023-07-13T08:13:49;12.15;;;4.60;;
64885;SDS011;51514;52.206;5.114;2023-07-13T08:16:15;10.70;;;5.03;;
64885;SDS011;51514;52.206;5.114;2023-07-13T08:18:40;13.32;;;6.03;;
64885;SDS011;51514;52.206;5.114;2023-07-13T08:21:06;12.30;;;5.50;;
64885;SDS011;51514;52.206;5.114;2023-07-13T08:23:33;16.48;;;6.28;;
64885;SDS011;51514;52.206;5.114;2023-07-13T08:25:59;14.13;;;6.25;;
64885;SDS011;51514;52.206;5.114;2023-07-13T08:28:26;14.65;;;6.45;;
64885;SDS011;51514;52.206;5.114;2023-07-13T08:30:52;12.38;;;4.78;;
64885;SDS011;51514;52.206;5.114;2023-07-13T08:33:18;12.48;;;4.07;;
64885;SDS011;51514;52.206;5.114;2023-07-13T08:35:48;8.85;;;4.00;;
64885;SDS011;51514;52.206;5.114;2023-07-13T08:38:14;10.07;;;4.03;;
64885;SDS011;51514;52.206;5.114;2023-07-13T08:40:41;9.18;;;5.13;;
64885;SDS011;51514;52.206;5.114;2023-07-13T08:43:09;11.25;;;4.28;;
64885;SDS011;51514;52.206;5.114;2023-07-13T08:45:44;9.30;;;4.28;;
64885;SDS011;51514;52.206;5.114;2023-07-13T08:48:16;9.85;;;4.47;;
64885;SDS011;51514;52.206;5.114;2023-07-13T08:50:51;6.55;;;3.65;;
64885;SDS011;51514;52.206;5.114;2023-07-13T08:53:23;7.45;;;3.67;;
64885;SDS011;51514;52.206;5.114;2023-07-13T08:55:54;7.68;;;3.50;;
64885;SDS011;51514;52.206;5.114;2023-07-13T08:58:23;8.43;;;3.40;;
64885;SDS011;51514;52.206;5.114;2023-07-13T09:03:40;6.47;;;3.20;;
64885;SDS011;51514;52.206;5.114;2023-07-13T09:06:14;5.82;;;3.15;;
64885;SDS011;51514;52.206;5.114;2023-07-13T09:11:45;11.15;;;4.20;;
64885;SDS011;51514;52.206;5.114;2023-07-13T09:14:33;6.78;;;3.45;;
64885;SDS011;51514;52.206;5.114;2023-07-13T09:17:01;6.65;;;3.72;;
64885;SDS011;51514;52.206;5.114;2023-07-13T09:19:30;7.05;;;4.00;;
64885;SDS011;51514;52.206;5.114;2023-07-13T09:21:59;8.35;;;4.00;;
64885;SDS011;51514;52.206;5.114;2023-07-13T09:24:36;9.82;;;4.20;;
64885;SDS011;51514;52.206;5.114;2023-07-13T09:27:14;6.82;;;3.50;;
64885;SDS011;51514;52.206;5.114;2023-07-13T09:29:46;9.15;;;3.70;;
64885;SDS011;51514;52.206;5.114;2023-07-13T09:32:16;10.15;;;3.53;;
64885;SDS011;51514;52.206;5.114;2023-07-13T09:34:55;10.13;;;3.92;;
64885;SDS011;51514;52.206;5.114;2023-07-13T09:37:21;7.97;;;3.58;;
64885;SDS011;51514;52.206;5.114;2023-07-13T09:39:58;11.57;;;4.88;;
64885;SDS011;51514;52.206;5.114;2023-07-13T09:42:26;9.40;;;4.28;;
64885;SDS011;51514;52.206;5.114;2023-07-13T09:44:54;7.85;;;3.85;;
64885;SDS011;51514;52.206;5.114;2023-07-13T09:47:26;8.27;;;4.05;;
64885;SDS011;51514;52.206;5.114;2023-07-13T09:52:26;7.68;;;4.35;;
64885;SDS011;51514;52.206;5.114;2023-07-13T09:54:53;9.52;;;3.53;;
64885;SDS011;51514;52.206;5.114;2023-07-13T09:57:25;7.97;;;3.45;;
64885;SDS011;51514;52.206;5.114;2023-07-13T09:59:53;9.73;;;3.78;;
64885;SDS011;51514;52.206;5.114;2023-07-13T10:02:26;11.48;;;3.88;;
64885;SDS011;51514;52.206;5.114;2023-07-13T10:05:01;9.73;;;4.40;;
64885;SDS011;51514;52.206;5.114;2023-07-13T10:07:29;11.02;;;3.55;;
64885;SDS011;51514;52.206;5.114;2023-07-13T10:09:57;8.05;;;3.78;;
64885;SDS011;51514;52.206;5.114;2023-07-13T10:12:25;7.20;;;3.47;;
64885;SDS011;51514;52.206;5.114;2023-07-13T10:14:56;7.47;;;3.47;;
64885;SDS011;51514;52.206;5.114;2023-07-13T10:17:25;14.65;;;4.00;;
64885;SDS011;51514;52.206;5.114;2023-07-13T10:19:57;10.80;;;4.50;;
64885;SDS011;51514;52.206;5.114;2023-07-13T10:22:45;8.80;;;3.65;;
64885;SDS011;51514;52.206;5.114;2023-07-13T10:25:16;8.63;;;3.78;;
64885;SDS011;51514;52.206;5.114;2023-07-13T10:27:44;8.52;;;3.03;;
64885;SDS011;51514;52.206;5.114;2023-07-13T10:32:44;10.50;;;2.67;;
64885;SDS011;51514;52.206;5.114;2023-07-13T10:35:12;7.15;;;2.60;;
64885;SDS011;51514;52.206;5.114;2023-07-13T10:37:43;4.95;;;2.40;;
64885;SDS011;51514;52.206;5.114;2023-07-13T10:40:29;6.03;;;2.42;;
64885;SDS011;51514;52.206;5.114;2023-07-13T10:43:00;8.23;;;3.70;;
64885;SDS011;51514;52.206;5.114;2023-07-13T10:45:31;32.30;;;4.50;;
64885;SDS011;51514;52.206;5.114;2023-07-13T10:48:00;14.68;;;3.17;;
64885;SDS011;51514;52.206;5.114;2023-07-13T10:50:27;40.15;;;5.32;;
64885;SDS011;51514;52.206;5.114;2023-07-13T10:52:56;12.45;;;3.55;;
64885;SDS011;51514;52.206;5.114;2023-07-13T11:00:47;57.97;;;7.68;;
64885;SDS011;51514;52.206;5.114;2023-07-13T11:03:21;25.40;;;4.32;;
64885;SDS011;51514;52.206;5.114;2023-07-13T11:08:53;17.77;;;3.85;;
64885;SDS011;51514;52.206;5.114;2023-07-13T11:14:01;19.58;;;3.55;;
64885;SDS011;51514;52.206;5.114;2023-07-13T11:16:42;56.67;;;6.70;;
64885;SDS011;51514;52.206;5.114;2023-07-13T11:24:28;72.28;;;7.72;;
64885;SDS011;51514;52.206;5.114;2023-07-13T11:29:52;53.88;;;5.88;;
64885;SDS011;51514;52.206;5.114;2023-07-13T11:32:33;68.80;;;7.60;;
64885;SDS011;51514;52.206;5.114;2023-07-13T11:35:00;53.72;;;6.53;;
64885;SDS011;51514;52.206;5.114;2023-07-13T11:37:25;45.88;;;6.53;;
64885;SDS011;51514;52.206;5.114;2023-07-13T11:39:53;46.33;;;5.85;;
64885;SDS011;51514;52.206;5.114;2023-07-13T11:42:19;35.50;;;5.97;;
64885;SDS011;51514;52.206;5.114;2023-07-13T11:44:47;44.35;;;5.90;;
64885;SDS011;51514;52.206;5.114;2023-07-13T11:47:16;37.25;;;5.45;;
64885;SDS011;51514;52.206;5.114;2023-07-13T11:49:47;36.15;;;5.28;;
64885;SDS011;51514;52.206;5.114;2023-07-13T11:52:17;36.67;;;4.78;;
64885;SDS011;51514;52.206;5.114;2023-07-13T11:54:53;36.58;;;5.07;;
64885;SDS011;51514;52.206;5.114;2023-07-13T11:59:59;30.40;;;4.47;;
64885;SDS011;51514;52.206;5.114;2023-07-13T12:05:01;24.73;;;4.80;;
64885;SDS011;51514;52.206;5.114;2023-07-13T12:07:29;22.80;;;4.93;;
64885;SDS011;51514;52.206;5.114;2023-07-13T12:10:03;26.23;;;4.18;;
64885;SDS011;51514;52.206;5.114;2023-07-13T12:12:51;19.15;;;3.97;;
64885;SDS011;51514;52.206;5.114;2023-07-13T12:15:35;39.00;;;4.40;;
64885;SDS011;51514;52.206;5.114;2023-07-13T12:18:14;18.17;;;4.13;;
64885;SDS011;51514;52.206;5.114;2023-07-13T12:20:43;22.15;;;3.53;;
64885;SDS011;51514;52.206;5.114;2023-07-13T12:23:30;23.30;;;5.85;;
64885;SDS011;51514;52.206;5.114;2023-07-13T12:25:58;21.85;;;4.63;;
64885;SDS011;51514;52.206;5.114;2023-07-13T12:28:47;18.48;;;3.75;;
64885;SDS011;51514;52.206;5.114;2023-07-13T12:31:31;16.55;;;3.72;;
64885;SDS011;51514;52.206;5.114;2023-07-13T12:36:31;16.50;;;3.50;;
64885;SDS011;51514;52.206;5.114;2023-07-13T12:39:00;16.70;;;3.88;;
64885;SDS011;51514;52.206;5.114;2023-07-13T12:41:39;13.82;;;3.20;;
64885;SDS011;51514;52.206;5.114;2023-07-13T12:44:07;17.90;;;3.33;;
64885;SDS011;51514;52.206;5.114;2023-07-13T12:46:36;15.23;;;3.38;;
64885;SDS011;51514;52.206;5.114;2023-07-13T12:49:04;10.60;;;3.65;;
64885;SDS011;51514;52.206;5.114;2023-07-13T12:51:32;9.07;;;2.85;;
64885;SDS011;51514;52.206;5.114;2023-07-13T12:53:59;13.95;;;3.22;;
64885;SDS011;51514;52.206;5.114;2023-07-13T12:56:36;6.53;;;3.07;;
64885;SDS011;51514;52.206;5.114;2023-07-13T12:59:02;15.75;;;3.10;;
64885;SDS011;51514;52.206;5.114;2023-07-13T13:01:32;8.07;;;3.10;;
64885;SDS011;51514;52.206;5.114;2023-07-13T13:04:02;9.02;;;3.13;;
64885;SDS011;51514;52.206;5.114;2023-07-13T13:06:31;12.90;;;2.95;;
64885;SDS011;51514;52.206;5.114;2023-07-13T13:08:58;10.82;;;3.05;;
64885;SDS011;51514;52.206;5.114;2023-07-13T13:11:25;11.88;;;3.53;;
64885;SDS011;51514;52.206;5.114;2023-07-13T13:13:52;9.15;;;2.85;;
64885;SDS011;51514;52.206;5.114;2023-07-13T13:19:12;13.30;;;3.40;;
64885;SDS011;51514;52.206;5.114;2023-07-13T13:21:39;12.95;;;3.28;;
64885;SDS011;51514;52.206;5.114;2023-07-13T13:24:14;7.90;;;2.60;;
64885;SDS011;51514;52.206;5.114;2023-07-13T13:26:42;9.70;;;3.00;;
64885;SDS011;51514;52.206;5.114;2023-07-13T13:29:13;14.57;;;3.08;;
64885;SDS011;51514;52.206;5.114;2023-07-13T13:31:41;12.48;;;3.20;;
64885;SDS011;51514;52.206;5.114;2023-07-13T13:34:08;10.77;;;3.35;;
64885;SDS011;51514;52.206;5.114;2023-07-13T13:36:35;25.58;;;3.85;;
64885;SDS011;51514;52.206;5.114;2023-07-13T13:39:01;16.08;;;3.53;;
64885;SDS011;51514;52.206;5.114;2023-07-13T13:41:27;11.15;;;3.20;;
64885;SDS011;51514;52.206;5.114;2023-07-13T13:43:53;16.23;;;3.80;;
64885;SDS011;51514;52.206;5.114;2023-07-13T13:46:20;20.42;;;3.80;;
64885;SDS011;51514;52.206;5.114;2023-07-13T13:48:50;18.15;;;3.80;;
64885;SDS011;51514;52.206;5.114;2023-07-13T13:51:16;10.70;;;3.58;;
64885;SDS011;51514;52.206;5.114;2023-07-13T13:53:45;8.48;;;2.88;;
64885;SDS011;51514;52.206;5.114;2023-07-13T13:56:11;15.93;;;3.67;;
64885;SDS011;51514;52.206;5.114;2023-07-13T13:58:38;16.42;;;3.30;;
64885;SDS011;51514;52.206;5.114;2023-07-13T14:01:04;16.42;;;3.90;;
64885;SDS011;51514;52.206;5.114;2023-07-13T14:03:33;14.38;;;3.20;;
64885;SDS011;51514;52.206;5.114;2023-07-13T14:05:59;10.85;;;3.05;;
64885;SDS011;51514;52.206;5.114;2023-07-13T14:08:24;11.00;;;3.58;;
64885;SDS011;51514;52.206;5.114;2023-07-13T14:10:51;14.25;;;3.20;;
64885;SDS011;51514;52.206;5.114;2023-07-13T14:15:51;15.10;;;3.40;;
64885;SDS011;51514;52.206;5.114;2023-07-13T14:18:18;11.30;;;3.08;;
64885;SDS011;51514;52.206;5.114;2023-07-13T14:20:44;11.75;;;3.75;;
64885;SDS011;51514;52.206;5.114;2023-07-13T14:23:12;13.23;;;3.67;;
64885;SDS011;51514;52.206;5.114;2023-07-13T14:25:38;15.13;;;4.00;;
64885;SDS011;51514;52.206;5.114;2023-07-13T14:28:14;11.48;;;3.60;;
64885;SDS011;51514;52.206;5.114;2023-07-13T14:30:52;10.70;;;3.95;;
64885;SDS011;51514;52.206;5.114;2023-07-13T14:33:19;10.60;;;2.97;;
64885;SDS011;51514;52.206;5.114;2023-07-13T14:35:45;14.20;;;3.30;;
64885;SDS011;51514;52.206;5.114;2023-07-13T14:38:11;10.45;;;3.28;;
64885;SDS011;51514;52.206;5.114;2023-07-13T14:40:40;12.38;;;3.25;;
64885;SDS011;51514;52.206;5.114;2023-07-13T14:43:09;8.15;;;3.45;;
64885;SDS011;51514;52.206;5.114;2023-07-13T14:45:35;12.55;;;3.33;;
64885;SDS011;51514;52.206;5.114;2023-07-13T14:48:09;9.75;;;3.08;;
64885;SDS011;51514;52.206;5.114;2023-07-13T14:50:46;6.93;;;2.88;;
64885;SDS011;51514;52.206;5.114;2023-07-13T14:53:12;9.70;;;3.60;;
64885;SDS011;51514;52.206;5.114;2023-07-13T14:55:38;8.90;;;2.60;;
64885;SDS011;51514;52.206;5.114;2023-07-13T14:58:04;9.00;;;3.15;;
64885;SDS011;51514;52.206;5.114;2023-07-13T15:00:29;8.00;;;2.60;;
64885;SDS011;51514;52.206;5.114;2023-07-13T15:02:56;5.93;;;2.83;;
64885;SDS011;51514;52.206;5.114;2023-07-13T15:05:27;4.78;;;2.75;;
64885;SDS011;51514;52.206;5.114;2023-07-13T15:07:56;9.32;;;2.88;;
64885;SDS011;51514;52.206;5.114;2023-07-13T15:12:52;8.23;;;3.30;;
64885;SDS011;51514;52.206;5.114;2023-07-13T15:15:18;7.07;;;2.75;;
64885;SDS011;51514;52.206;5.114;2023-07-13T15:17:45;5.93;;;3.15;;
64885;SDS011;51514;52.206;5.114;2023-07-13T15:20:16;4.13;;;2.63;;
64885;SDS011;51514;52.206;5.114;2023-07-13T15:22:46;7.90;;;2.25;;
64885;SDS011;51514;52.206;5.114;2023-07-13T15:25:17;6.60;;;2.42;;
64885;SDS011;51514;52.206;5.114;2023-07-13T15:27:45;4.25;;;2.53;;
64885;SDS011;51514;52.206;5.114;2023-07-13T15:30:11;5.93;;;2.25;;